Alpena, MI

12:13 AM EDT on May 04, 2015 (GMT -0400)
APRSWXNET | | Change Station
CLOSE
Current Station
Personal Weather Station
Location: Alpena, MI
Elevation: 593 ft
Nearby Weather Stations

Elev 593 ft 45.05 °N, 83.45 °W | Updated 27 minutes ago

Partly Cloudy
Partly Cloudy
68 °F
Feels Like 68 °F
N
2
Wind Variable Wind from WSW
Gusts 5.0 mph

Today
High -- | Low -- °F
--% Chance of Precip.
Yesterday
High -- | Low -- °F
Precip. -- in
6:19 AM 8:43 PM
Full, 100% visible
Pressure 29.90 in
Visibility 10.0 miles
Clouds Mostly Cloudy 8500 ft
Mostly Cloudy 11000 ft
Dew Point 48 °F
Humidity 49%
Rainfall in
Snow Depth Not available.
UV 0 out of 12
Pollen 11.00 out of 12
Air Quality Not available.
Flu Activity Regional
METAR KAPN 040354Z AUTO 20005KT 10SM BKN085 BKN110 20/07 A2991 RMK AO2 SLP125 T02000072

More Conditions Fewer Conditions

Pressure 29.90 in
Visibility 10.0 miles
Clouds Mostly Cloudy 8500 ft
Mostly Cloudy 11000 ft
Dew Point 48 °F
Humidity 49%
Rainfall in
Snow Depth Not available.
UV 0 out of 12
Pollen 11.00 out of 12
Air Quality Not available.
Flu Activity Regional
METAR KAPN 040354Z AUTO 20005KT 10SM BKN085 BKN110 20/07 A2991 RMK AO2 SLP125 T02000072

More Conditions Fewer Conditions

Nepal has a long way to go to dig out and rebuild from a devastating earthquake. We have teamed up with several charities and organizations to make contributing to the relief effort as easy as possible.
How you can help: Portlight Strategies | Red Cross
Nowcast | as of 12:00 am EDT on May 4, 2015

At 1 am...showers likely and chance of thunderstorms. Temperature 64. Southwest winds 7 mph. At 3 am...showers likely and chance of thunderstorms. Temperature 60. Southwest winds 7 mph. At 5 am...showers likely and chance of thunderstorms. Temperature 59. Southwest winds 7 mph. At 7 am...showers likely and chance of thunderstorms. Temperature 59. Southwest winds 7 mph.

×

10-Day Weather Forecast

Almanac

Astronomy

May. 04, 2015 Rise Set
Actual Time
Civil Twilight
Nautical Twilight
Astronomical Twilight
Moon
Length of Visible Light
Length of Day
Tomorrow will be .
, % of the Moon is Illuminated

Today's Extremes

State Highs State Lows

Community

WunderPhotos

Upload Photos

1,818,512 photos uploaded!

WunderBlogs® & News

Nearby

Air Quality

  Air Quality AQ Index Pollutant
Not available.

Snow Depth

Station Depth Elevation

Earthquake Activity

City Distance Mag. Time & Date
Minimum magnitude displayed is 2.5.

Coastal Water Temperatures

Place Temperature

Stations

Nearby Weather Stations

Station Location Temp. Windchill Dew Point Humidity Wind Precip. Elev Updated Type